Time;durP1;ratioP1;P1;durP2;ratioP2;P2;SDS_P1;SDS_P2;PMS_P1;PMS_P2;Temp;Humidity;BMP_temperature;BMP_pressure;BME280_temperature;BME280_humidity;BME280_pressure;Samples;Min_cycle;Max_cycle;Signal;HPM_P1;HPM_P2
2022/06/16 00:00:52;;;;;;;7.28;2.95;;;;;;;19.06;58.67;101771.63;5236153;28;20434;-69
2022/06/16 00:03:23;;;;;;;5.87;2.80;;;;;;;19.03;58.82;101773.78;5235791;28;20035;-69
2022/06/16 00:05:55;;;;;;;4.60;2.67;;;;;;;18.98;58.40;101768.09;5235928;28;20072;-69
2022/06/16 00:08:26;;;;;;;4.90;2.70;;;;;;;18.97;57.92;101775.25;5216933;28;20053;-69
2022/06/16 00:13:49;;;;;;;5.55;3.00;;;;;;;18.82;58.60;101772.38;5236186;28;20041;-69
2022/06/16 00:16:22;;;;;;;5.43;2.53;;;;;;;18.82;59.17;101771.56;5235596;28;20353;-69
2022/06/16 00:18:53;;;;;;;6.18;2.70;;;;;;;18.76;58.82;101778.34;5235498;28;20547;-69
2022/06/16 00:21:25;;;;;;;7.85;3.35;;;;;;;18.74;58.58;101774.19;5234949;28;20136;-69
2022/06/16 00:23:56;;;;;;;5.47;3.07;;;;;;;18.67;59.05;101777.44;5235894;28;20033;-69
2022/06/16 00:26:28;;;;;;;4.80;3.17;;;;;;;18.61;59.80;101775.44;5234698;28;20404;-69
2022/06/16 00:28:59;;;;;;;5.57;2.90;;;;;;;18.60;59.16;101778.25;5235192;28;20025;-69
2022/06/16 00:31:31;;;;;;;5.83;3.00;;;;;;;18.54;59.22;101777.06;5235940;28;20033;-69
2022/06/16 00:34:02;;;;;;;4.25;2.83;;;;;;;18.58;59.53;101774.94;5234720;28;20033;-69
2022/06/16 00:36:35;;;;;;;4.93;3.03;;;;;;;18.53;58.88;101778.06;5235164;28;20033;-69
2022/06/16 00:39:06;;;;;;;4.53;3.08;;;;;;;18.43;59.19;101778.19;5234270;28;20033;-69
2022/06/16 00:41:38;;;;;;;5.83;3.30;;;;;;;18.32;59.45;101780.28;5233598;28;20700;-69
2022/06/16 00:44:36;;;;;;;5.85;3.33;;;;;;;18.39;59.97;101786.63;5217692;28;20029;-68
2022/06/16 00:47:08;;;;;;;9.77;4.28;;;;;;;18.20;59.59;101783.22;5235262;28;20033;-69
2022/06/16 00:49:43;;;;;;;7.07;3.30;;;;;;;18.25;59.78;101788.03;5234962;28;20068;-69
2022/06/16 00:52:22;;;;;;;6.90;3.97;;;;;;;18.18;59.58;101790.50;5235290;28;20112;-69
2022/06/16 00:55:23;;;;;;;7.43;3.55;;;;;;;18.15;60.11;101792.63;5234138;28;20108;-68
2022/06/16 00:57:54;;;;;;;9.23;3.40;;;;;;;18.01;60.58;101793.19;5233687;28;20037;-69
2022/06/16 01:03:00;;;;;;;5.47;3.25;;;;;;;17.97;61.21;101797.97;5234626;28;20449;-69
2022/06/16 01:05:31;;;;;;;9.40;3.50;;;;;;;17.97;60.23;101797.97;5234969;28;20033;-68
2022/06/16 01:08:06;;;;;;;8.15;3.47;;;;;;;17.96;59.86;101801.63;5235202;28;20116;-68
2022/06/16 01:10:46;;;;;;;7.03;3.53;;;;;;;17.84;60.64;101802.84;5233888;28;20538;-68
2022/06/16 01:13:43;;;;;;;5.60;3.22;;;;;;;17.89;60.39;101793.47;5234370;28;20064;-68
2022/06/16 01:16:32;;;;;;;5.72;3.33;;;;;;;17.91;60.35;101803.88;5234440;28;20034;-69
2022/06/16 01:19:28;;;;;;;5.53;3.60;;;;;;;17.92;60.38;101813.53;5233964;28;20056;-69
2022/06/16 01:22:35;;;;;;;5.45;3.38;;;;;;;17.94;60.90;101808.88;5235592;28;20120;-69
2022/06/16 01:25:20;;;;;;;5.18;3.00;;;;;;;17.83;61.03;101812.63;5234816;28;20415;-69
2022/06/16 01:28:03;;;;;;;4.97;3.30;;;;;;;17.80;60.33;101815.56;5231557;28;20032;-69
2022/06/16 01:30:43;;;;;;;;;;;;;;;18.25;57.97;101822.50;5234997;28;20115;-69
2022/06/16 01:33:40;;;;;;;5.38;3.17;;;;;;;17.85;60.50;101826.56;5234451;28;19938;-69
2022/06/16 01:36:23;;;;;;;7.53;3.42;;;;;;;17.62;61.26;101822.69;5233219;28;20029;-69
2022/06/16 01:39:01;;;;;;;8.15;3.40;;;;;;;17.55;61.84;101832.25;5233390;28;20040;-69
2022/06/16 01:41:42;;;;;;;8.02;3.70;;;;;;;17.42;62.32;101822.81;5234045;28;20025;-68
2022/06/16 01:44:18;;;;;;;8.93;3.35;;;;;;;17.27;63.86;101825.19;5233846;28;20040;-68
2022/06/16 01:47:00;;;;;;;6.30;3.92;;;;;;;17.37;64.57;101825.09;5234278;28;20084;-69
2022/06/16 01:49:37;;;;;;;5.32;3.03;;;;;;;17.12;66.58;101824.03;5233946;28;20033;-69
2022/06/16 01:52:13;;;;;;;5.80;3.33;;;;;;;17.03;68.06;101825.75;5234187;28;20022;-69
2022/06/16 01:54:51;;;;;;;6.82;3.70;;;;;;;16.97;67.91;101828.13;5232788;28;20037;-68
2022/06/16 01:57:29;;;;;;;6.15;3.85;;;;;;;16.84;69.94;101830.31;5233342;28;20018;-68
2022/06/16 02:00:04;;;;;;;9.98;4.35;;;;;;;16.81;70.29;101836.72;5233216;28;20026;-69
2022/06/16 02:02:39;;;;;;;6.05;3.80;;;;;;;16.76;71.08;101831.88;5233885;28;20556;-69
2022/06/16 02:05:19;;;;;;;4.85;3.80;;;;;;;16.74;71.04;101831.22;5233849;28;20103;-69
2022/06/16 02:08:11;;;;;;;4.93;3.40;;;;;;;16.75;70.73;101832.88;5233344;28;20073;-69
2022/06/16 02:10:51;;;;;;;8.35;3.92;;;;;;;16.65;71.21;101832.03;5233698;28;20488;-69
2022/06/16 02:13:27;;;;;;;6.38;4.25;;;;;;;16.64;71.15;101816.31;5232941;28;20035;-69
2022/06/16 02:16:13;;;;;;;7.38;4.15;;;;;;;16.58;70.89;101819.53;5234173;28;20037;-68
2022/06/16 02:18:45;;;;;;;6.55;4.10;;;;;;;16.44;71.84;101812.88;5233946;28;20024;-68
2022/06/16 02:21:36;;;;;;;6.72;4.10;;;;;;;16.58;70.65;101819.53;5233945;28;20045;-69
2022/06/16 02:24:12;;;;;;;5.05;3.92;;;;;;;16.40;71.39;101833.53;5233271;28;20037;-68
2022/06/16 02:26:44;;;;;;;6.35;4.05;;;;;;;16.27;71.77;101828.53;5233867;28;20034;-69
2022/06/16 02:29:37;;;;;;;7.03;3.87;;;;;;;16.43;70.81;101835.03;5233704;28;20025;-68
2022/06/16 02:32:36;;;;;;;4.95;3.95;;;;;;;16.35;71.79;101840.22;5215251;28;20112;-69
2022/06/16 02:35:31;;;;;;;7.07;3.78;;;;;;;16.33;71.35;101839.50;5234196;28;20037;-69
2022/06/16 02:38:08;;;;;;;7.90;4.40;;;;;;;16.11;73.60;101864.50;5233546;28;20492;-68
2022/06/16 02:41:15;;;;;;;5.95;3.97;;;;;;;16.21;72.91;101868.78;5233389;28;20084;-68
2022/06/16 02:43:56;;;;;;;8.85;4.40;;;;;;;15.94;75.15;101863.38;5233686;28;20570;-68
2022/06/16 02:46:43;;;;;;;5.78;3.67;;;;;;;16.05;73.07;101874.63;5236103;28;20044;-68
2022/06/16 02:49:36;;;;;;;5.85;4.38;;;;;;;15.85;74.86;101885.38;5236569;28;20025;-69
2022/06/16 02:52:13;;;;;;;7.78;3.97;;;;;;;15.88;75.71;101890.38;5237812;28;20032;-69
2022/06/16 02:54:57;;;;;;;7.53;4.10;;;;;;;15.78;76.02;101883.28;5238042;28;20025;-69
2022/06/16 02:57:47;;;;;;;10.30;4.32;;;;;;;15.85;75.79;101875.63;5236631;28;20013;-68
2022/06/16 03:00:23;;;;;;;7.90;4.07;;;;;;;15.65;77.20;101884.50;5237702;28;20021;-67
2022/06/16 03:02:55;;;;;;;5.55;4.18;;;;;;;15.53;76.74;101883.75;5237062;28;20113;-70
2022/06/16 03:05:26;;;;;;;5.45;4.50;;;;;;;15.39;78.00;101879.72;5236343;28;20552;-70
2022/06/16 03:07:57;;;;;;;7.15;4.10;;;;;;;15.43;77.72;101883.75;5237044;28;20381;-69
2022/06/16 03:13:24;;;;;;;7.53;4.30;;;;;;;15.35;78.32;101878.34;5237826;28;20463;-68
2022/06/16 03:15:58;;;;;;;7.03;4.47;;;;;;;15.20;79.63;101879.69;5235741;28;20029;-67
2022/06/16 03:18:30;;;;;;;6.85;3.97;;;;;;;15.17;79.24;101880.78;5237364;28;20103;-68
2022/06/16 03:21:01;;;;;;;8.57;4.47;;;;;;;15.21;80.34;101876.91;5236587;28;20041;-67
2022/06/16 03:23:33;;;;;;;8.00;5.32;;;;;;;15.23;77.92;101874.16;5236857;28;20033;-67
2022/06/16 03:26:04;;;;;;;8.48;4.22;;;;;;;15.21;78.68;101876.91;5236557;28;20392;-67
2022/06/16 03:28:36;;;;;;;6.50;4.65;;;;;;;15.17;79.31;101880.78;5237035;28;20021;-68
2022/06/16 03:31:07;;;;;;;14.05;5.18;;;;;;;15.12;80.00;101876.88;5236804;28;20716;-68
2022/06/16 03:33:38;;;;;;;7.22;4.47;;;;;;;15.15;78.74;101871.31;5236595;28;20144;-68
2022/06/16 03:36:12;;;;;;;5.13;4.47;;;;;;;15.16;78.34;101873.84;5234920;28;20061;-68
2022/06/16 03:38:43;;;;;;;;;;;;;;;15.76;73.61;101885.22;5235174;28;20029;-67
2022/06/16 03:41:14;;;;;;;8.37;4.93;;;;;;;15.15;80.46;101892.44;5236226;28;19909;-68
2022/06/16 03:43:45;;;;;;;7.95;5.00;;;;;;;15.13;79.84;101899.66;5219666;28;20032;-68
2022/06/16 03:46:17;;;;;;;6.72;4.57;;;;;;;15.03;80.91;101902.25;5235338;28;20120;-68
2022/06/16 03:48:48;;;;;;;6.65;4.65;;;;;;;14.91;82.53;101911.25;5235961;28;20034;-68
2022/06/16 03:51:19;;;;;;;9.48;5.30;;;;;;;14.97;81.42;101906.28;5237235;28;20385;-68
2022/06/16 03:53:51;;;;;;;8.07;5.05;;;;;;;14.88;81.64;101909.69;5235646;28;20587;-68
2022/06/16 03:56:22;;;;;;;6.82;4.82;;;;;;;14.75;83.60;101912.56;5235041;28;20025;-68
2022/06/16 03:58:55;;;;;;;5.93;4.13;;;;;;;14.83;82.69;101918.00;5236749;28;20485;-68
2022/06/16 04:01:26;;;;;;;7.65;4.45;;;;;;;14.82;83.02;101920.78;5236377;28;20032;-68
2022/06/16 04:04:00;;;;;;;10.20;5.57;;;;;;;14.82;82.90;101924.25;5235395;28;20037;-67
2022/06/16 04:06:35;;;;;;;7.95;4.85;;;;;;;14.85;83.12;101925.81;5235675;28;20061;-68
2022/06/16 04:09:07;;;;;;;6.40;4.90;;;;;;;14.78;84.01;101928.13;5233708;28;20104;-68
2022/06/16 04:11:38;;;;;;;8.93;5.03;;;;;;;14.76;84.39;101926.59;5236042;28;20397;-68
2022/06/16 04:14:12;;;;;;;6.93;5.13;;;;;;;14.83;84.98;101931.22;5236057;28;20037;-68
2022/06/16 04:16:49;;;;;;;11.02;5.25;;;;;;;14.97;84.07;101942.41;5235947;28;20017;-69
2022/06/16 04:19:22;;;;;;;8.43;5.53;;;;;;;14.83;84.86;101928.56;5235173;28;20033;-68
2022/06/16 04:21:53;;;;;;;8.77;5.53;;;;;;;14.86;83.12;101930.13;5235082;28;20072;-68
2022/06/16 04:24:25;;;;;;;8.05;5.60;;;;;;;14.86;82.80;101935.41;5235706;28;20049;-68
2022/06/16 04:26:57;;;;;;;8.35;5.22;;;;;;;14.92;81.41;101948.03;5235142;28;20491;-68
2022/06/16 04:29:29;;;;;;;7.32;4.95;;;;;;;14.96;81.02;101935.44;5234728;28;20029;-68
2022/06/16 04:32:00;;;;;;;6.68;4.63;;;;;;;14.97;80.94;101943.22;5236554;28;20031;-68
2022/06/16 04:34:31;;;;;;;6.95;4.68;;;;;;;15.05;80.59;101947.84;5235897;28;20060;-68
2022/06/16 04:37:03;;;;;;;8.05;5.07;;;;;;;15.10;79.06;101940.34;5234509;28;20017;-68
2022/06/16 04:39:34;;;;;;;7.45;4.50;;;;;;;15.10;79.77;101950.91;5216435;28;20037;-68
2022/06/16 04:42:06;;;;;;;9.80;4.75;;;;;;;15.23;79.20;101959.47;5234985;28;20036;-67
2022/06/16 04:44:39;;;;;;;6.97;4.93;;;;;;;15.26;78.47;101963.63;5235474;28;20415;-68
2022/06/16 04:47:10;;;;;;;5.63;4.38;;;;;;;15.26;77.79;101955.69;5234811;28;20017;-68
2022/06/16 04:49:43;;;;;;;6.72;4.90;;;;;;;15.26;78.19;101977.63;5235298;28;20044;-68
2022/06/16 04:52:17;;;;;;;7.45;4.53;;;;;;;15.33;79.07;101965.59;5235172;28;20060;-68
2022/06/16 04:54:49;;;;;;;8.73;5.03;;;;;;;15.28;77.70;101970.44;5234041;28;20132;-68
2022/06/16 04:57:22;;;;;;;6.50;4.90;;;;;;;15.37;77.69;101970.59;5235379;28;20029;-68
2022/06/16 04:59:53;;;;;;;6.55;4.93;;;;;;;15.43;76.45;101970.06;5234211;28;20029;-68
2022/06/16 05:02:24;;;;;;;8.15;5.38;;;;;;;15.46;77.13;101968.00;5235369;28;20403;-68
2022/06/16 05:04:56;;;;;;;7.45;4.90;;;;;;;15.49;77.48;101978.31;5235201;28;20025;-68
2022/06/16 05:07:28;;;;;;;7.43;5.00;;;;;;;15.51;77.16;101980.81;5233836;28;20030;-68
2022/06/16 05:09:59;;;;;;;10.82;5.03;;;;;;;15.52;76.53;101972.72;5234101;28;20025;-68
2022/06/16 05:12:31;;;;;;;8.63;5.65;;;;;;;15.60;75.08;101987.91;5235382;28;20468;-68
2022/06/16 05:15:02;;;;;;;6.70;4.82;;;;;;;15.64;75.28;101994.59;5233203;28;20098;-68
2022/06/16 05:17:34;;;;;;;9.27;5.65;;;;;;;15.70;72.93;101994.09;5233952;28;20104;-68
2022/06/16 05:20:06;;;;;;;7.50;5.03;;;;;;;15.75;74.61;101999.78;5234312;28;20042;-68
2022/06/16 05:22:37;;;;;;;10.05;5.28;;;;;;;15.80;73.12;102002.88;5234936;28;20103;-68
2022/06/16 05:25:09;;;;;;;6.50;5.43;;;;;;;15.85;72.95;102004.28;5234446;28;20326;-68
2022/06/16 05:27:40;;;;;;;7.97;5.05;;;;;;;15.92;73.01;102003.59;5233583;28;20095;-67
2022/06/16 05:30:12;;;;;;;8.45;5.03;;;;;;;15.98;72.87;102010.97;5234698;28;20072;-68
2022/06/16 05:32:43;;;;;;;10.02;5.90;;;;;;;16.03;71.61;102006.13;5233627;28;20034;-68
2022/06/16 05:35:15;;;;;;;8.20;5.88;;;;;;;16.07;68.11;102009.31;5234459;28;20091;-68
2022/06/16 05:37:46;;;;;;;7.95;4.60;;;;;;;16.15;70.83;102016.56;5233359;28;20029;-68
2022/06/16 05:40:18;;;;;;;7.82;5.05;;;;;;;16.16;68.40;102013.78;5234341;28;20511;-68
2022/06/16 05:42:49;;;;;;;6.07;4.72;;;;;;;16.23;68.29;102014.06;5234075;28;20026;-68
2022/06/16 05:45:20;;;;;;;8.77;5.03;;;;;;;16.26;67.70;102022.56;5234972;28;20492;-68
2022/06/16 05:47:53;;;;;;;6.03;4.85;;;;;;;16.36;66.66;102030.47;5233299;28;20033;-68
2022/06/16 05:50:25;;;;;;;9.00;5.33;;;;;;;16.42;67.15;102026.47;5234535;28;20395;-69
2022/06/16 05:52:56;;;;;;;7.65;5.22;;;;;;;16.54;65.71;102033.28;5233269;28;20306;-68
2022/06/16 05:55:29;;;;;;;10.20;5.10;;;;;;;16.62;64.10;102032.56;5235127;28;20390;-68
2022/06/16 05:58:01;;;;;;;10.63;5.25;;;;;;;16.74;62.32;102036.75;5233416;28;20381;-68
2022/06/16 06:00:33;;;;;;;6.90;4.50;;;;;;;16.78;60.62;102033.72;5234320;28;20043;-69
2022/06/16 06:03:04;;;;;;;5.95;4.63;;;;;;;16.85;59.43;102046.34;5232171;28;20021;-69
2022/06/16 06:05:35;;;;;;;7.50;4.40;;;;;;;17.06;60.03;102041.72;5222910;28;20496;-69
2022/06/16 06:16:41;;;;;;;7.03;3.90;;;;;;;17.55;56.80;102042.38;5232376;28;20120;-68
2022/06/16 06:19:23;;;;;;;7.82;3.38;;;;;;;17.61;54.89;102046.25;5233236;28;20045;-68
2022/06/16 06:22:00;;;;;;;8.27;3.60;;;;;;;17.73;52.14;102047.75;5219516;28;20159;-68
2022/06/16 06:24:49;;;;;;;9.65;3.15;;;;;;;17.90;52.87;102044.31;5238447;28;20455;-68
2022/06/16 06:27:29;;;;;;;4.47;2.95;;;;;;;17.93;52.42;102051.97;5238427;28;20024;-68
2022/06/16 06:30:02;;;;;;;7.25;3.10;;;;;;;17.96;50.94;102048.22;5238019;28;20026;-68
2022/06/16 06:32:34;;;;;;;7.40;2.90;;;;;;;18.18;50.18;102054.88;5237288;28;20026;-68
2022/06/16 06:35:05;;;;;;;7.20;2.88;;;;;;;18.32;51.09;102054.38;5238813;28;20028;-68
2022/06/16 06:37:37;;;;;;;3.85;2.58;;;;;;;18.55;51.55;102060.03;5237077;28;20044;-69
2022/06/16 06:40:16;;;;;;;7.35;3.47;;;;;;;18.70;51.06;102055.88;5219591;28;20044;-69
2022/06/16 06:42:47;;;;;;;5.43;2.72;;;;;;;18.71;48.95;102057.56;5219460;28;20493;-69
2022/06/16 06:45:19;;;;;;;7.40;2.77;;;;;;;18.76;48.92;102059.75;5238450;28;20055;-69
2022/06/16 06:47:50;;;;;;;5.70;2.88;;;;;;;19.00;48.04;102059.09;5229920;28;20615;-69
2022/06/16 06:50:26;;;;;;;5.50;2.50;;;;;;;19.07;47.19;102062.81;5236807;28;20388;-69
2022/06/16 06:52:57;;;;;;;5.47;2.92;;;;;;;19.06;47.05;102063.81;5238375;28;20018;-69
2022/06/16 06:55:29;;;;;;;7.47;2.40;;;;;;;19.30;47.51;102064.94;5237673;28;20052;-69
2022/06/16 06:58:00;;;;;;;6.73;2.33;;;;;;;19.44;46.00;102049.22;5233670;28;20030;-68
2022/06/16 07:00:32;;;;;;;4.70;2.40;;;;;;;19.53;45.37;102068.69;5236072;28;20291;-69
2022/06/16 07:03:03;;;;;;;3.95;1.83;;;;;;;19.69;45.64;102074.09;5232432;28;20026;-70
2022/06/16 07:05:34;;;;;;;5.25;2.28;;;;;;;19.73;45.89;102074.63;5218357;28;20393;-69
2022/06/16 07:08:06;;;;;;;5.78;2.40;;;;;;;19.81;44.69;102081.81;5235915;28;20538;-69
2022/06/16 07:10:38;;;;;;;5.78;2.90;;;;;;;19.91;44.42;102086.00;5234541;28;20470;-69
2022/06/16 07:13:10;;;;;;;5.38;2.03;;;;;;;19.96;44.52;102092.66;5234853;28;20029;-69
2022/06/16 07:15:41;;;;;;;4.80;2.17;;;;;;;20.14;44.94;102093.38;5237290;28;20017;-69
2022/06/16 07:18:13;;;;;;;4.33;2.23;;;;;;;20.20;42.64;102102.56;5236353;28;20037;-69
2022/06/16 07:20:47;;;;;;;5.50;2.43;;;;;;;20.28;42.79;102105.22;5256665;23;20062;-69
2022/06/16 07:23:19;;;;;;;4.47;2.00;;;;;;;20.38;43.65;102105.91;5240836;28;20030;-71
2022/06/16 07:25:51;;;;;;;6.10;2.17;;;;;;;20.32;41.88;102101.25;5241553;28;20033;-69
2022/06/16 07:28:23;;;;;;;5.50;2.47;;;;;;;20.59;45.68;102106.28;5238729;28;20613;-71
2022/06/16 07:30:55;;;;;;;;;;;;;;;21.28;44.26;102105.91;5234806;28;20055;-69
2022/06/16 07:33:26;;;;;;;7.38;2.45;;;;;;;20.75;44.34;102118.78;5249551;28;20394;-69
2022/06/16 07:35:58;;;;;;;6.10;2.77;;;;;;;20.81;43.85;102123.47;5251702;28;20046;-68
2022/06/16 07:38:30;;;;;;;5.57;3.30;;;;;;;20.81;44.57;102133.28;5237713;28;20056;-68
2022/06/16 07:43:51;;;;;;;5.53;2.70;;;;;;;20.90;43.33;102140.25;5244811;28;20116;-69
2022/06/16 07:46:23;;;;;;;4.60;2.83;;;;;;;21.17;44.00;102136.41;5247601;28;20111;-69
2022/06/16 07:48:55;;;;;;;5.40;2.10;;;;;;;21.26;43.20;102135.41;5221480;28;20076;-69
2022/06/16 07:51:26;;;;;;;5.20;2.30;;;;;;;21.31;41.25;102132.25;5235842;28;20033;-69
2022/06/16 07:53:58;;;;;;;5.47;2.40;;;;;;;21.42;41.69;102144.41;5240375;28;20538;-69
2022/06/16 07:56:29;;;;;;;5.33;2.60;;;;;;;21.47;41.89;102137.56;5229356;28;20018;-71
2022/06/16 07:59:01;;;;;;;4.00;1.93;;;;;;;21.61;42.23;102136.88;5243366;28;20064;-70
2022/06/16 08:01:32;;;;;;;6.83;2.00;;;;;;;21.71;41.21;102146.53;5239258;28;20051;-70
2022/06/16 08:04:05;;;;;;;4.97;2.47;;;;;;;21.68;41.58;102154.84;5238816;28;20065;-70
2022/06/16 08:06:37;;;;;;;6.75;1.75;;;;;;;21.84;41.68;102158.28;5233048;28;20052;-70
2022/06/16 08:09:10;;;;;;;6.03;2.10;;;;;;;21.94;40.75;102158.09;5232385;28;20030;-69
2022/06/16 08:14:36;;;;;;;3.35;1.95;;;;;;;22.13;39.65;102167.53;5247952;28;20036;-69
2022/06/16 08:17:21;;;;;;;5.15;2.10;;;;;;;22.32;40.03;102171.63;5242110;28;20039;-68
2022/06/16 08:19:55;;;;;;;3.58;2.08;;;;;;;22.29;40.50;102164.78;5242146;28;20043;-69
2022/06/16 08:22:26;;;;;;;5.43;2.33;;;;;;;22.18;39.05;102161.69;5240647;28;20090;-69
2022/06/16 08:24:58;;;;;;;6.43;2.43;;;;;;;22.29;39.39;102162.13;5222900;28;20052;-69
2022/06/16 08:27:33;;;;;;;4.50;2.00;;;;;;;22.51;39.14;102165.84;5247252;28;20484;-69
2022/06/16 08:30:09;;;;;;;4.03;2.30;;;;;;;22.49;39.55;102161.66;5251485;28;20132;-70
2022/06/16 08:32:41;;;;;;;5.05;2.05;;;;;;;22.47;38.90;102153.03;5219479;28;20039;-70
2022/06/16 08:35:13;;;;;;;3.83;1.90;;;;;;;22.74;38.90;102149.81;5243804;28;20035;-70
2022/06/16 08:37:44;;;;;;;4.90;2.37;;;;;;;22.74;37.13;102140.97;5224318;28;20021;-69
2022/06/16 08:40:18;;;;;;;5.07;2.00;;;;;;;23.00;39.65;102148.66;5239801;28;20485;-69
2022/06/16 08:42:59;;;;;;;4.28;2.10;;;;;;;22.91;37.85;102150.53;5239936;28;20099;-70
2022/06/16 08:45:40;;;;;;;6.00;2.58;;;;;;;23.09;37.70;102152.06;5241537;28;20041;-70
2022/06/16 08:48:45;;;;;;;4.50;2.20;;;;;;;23.24;38.61;102153.75;5237063;28;20017;-69
2022/06/16 08:51:21;;;;;;;6.15;2.38;;;;;;;23.38;39.24;102162.00;5240701;28;20022;-69
2022/06/16 08:54:20;;;;;;;6.50;2.55;;;;;;;23.41;37.00;102158.94;5243589;28;20403;-69
2022/06/16 08:57:08;;;;;;;6.45;2.55;;;;;;;23.62;37.83;102169.75;5235693;28;20052;-70
2022/06/16 09:00:00;;;;;;;4.68;2.10;;;;;;;23.77;36.80;102172.47;5243629;28;20481;-69
2022/06/16 09:02:46;;;;;;;5.38;2.53;;;;;;;23.81;35.40;102180.94;5236388;28;20538;-70
2022/06/16 09:05:33;;;;;;;4.30;2.20;;;;;;;23.76;36.61;102185.00;5240466;28;20107;-69
2022/06/16 09:08:29;;;;;;;4.30;1.83;;;;;;;23.83;37.31;102187.78;5240613;28;20403;-70
2022/06/16 09:11:11;;;;;;;5.22;2.40;;;;;;;24.08;36.75;102188.31;5197737;28;20508;-69
2022/06/16 09:14:09;;;;;;;5.15;2.47;;;;;;;24.18;36.71;102190.69;5240707;28;20550;-69
2022/06/16 09:16:54;;;;;;;4.53;2.20;;;;;;;24.32;37.46;102189.00;5241042;28;20112;-69
2022/06/16 09:19:45;;;;;;;3.92;2.30;;;;;;;24.26;38.46;102193.25;5241885;28;20017;-69
2022/06/16 09:22:29;;;;;;;8.48;2.95;;;;;;;24.43;36.41;102192.03;5217884;28;20380;-69
2022/06/16 09:25:24;;;;;;;4.82;2.55;;;;;;;24.46;36.70;102194.34;5225908;28;20177;-70
2022/06/16 09:28:07;;;;;;;6.28;2.25;;;;;;;24.62;36.46;102190.59;5222495;28;20033;-70
2022/06/16 09:30:40;;;;;;;;;;;;;;;25.19;36.15;102192.41;5224830;28;20057;-70
2022/06/16 09:33:19;;;;;;;;;;;;;;;25.25;36.21;102188.09;5221803;28;20260;-70
2022/06/16 09:36:05;;;;;;;7.25;2.55;;;;;;;25.03;37.69;102186.44;5224185;28;19908;-70
2022/06/16 09:39:01;;;;;;;7.00;2.55;;;;;;;25.12;36.12;102188.00;5219499;28;20041;-70
2022/06/16 09:44:34;;;;;;;6.40;2.75;;;;;;;24.73;36.05;102189.25;5223197;28;20128;-70
2022/06/16 09:47:10;;;;;;;5.70;2.70;;;;;;;24.78;37.46;102197.56;5226414;28;20453;-70
2022/06/16 09:49:54;;;;;;;5.28;2.63;;;;;;;25.02;36.84;102195.53;5223257;28;20057;-71
2022/06/16 09:52:38;;;;;;;7.03;3.13;;;;;;;25.14;36.96;102197.50;5223659;28;20029;-70
2022/06/16 09:55:40;;;;;;;5.60;2.55;;;;;;;25.17;36.10;102191.75;5218321;28;20094;-70
2022/06/16 09:58:29;;;;;;;6.35;3.22;;;;;;;25.15;35.49;102196.47;5221318;28;20033;-70
2022/06/16 10:01:06;;;;;;;3.90;2.75;;;;;;;25.11;35.44;102197.06;5223017;28;20104;-70
2022/06/16 10:03:46;;;;;;;9.30;3.33;;;;;;;25.09;34.97;102199.09;5221696;28;20026;-70
2022/06/16 10:06:34;;;;;;;7.43;3.60;;;;;;;25.11;35.14;102199.75;5216651;28;20036;-70
2022/06/16 10:09:31;;;;;;;5.95;3.17;;;;;;;25.44;35.52;102184.72;5222553;28;20057;-70
2022/06/16 10:12:15;;;;;;;7.18;3.35;;;;;;;25.45;36.33;102185.56;5220612;28;20034;-70
2022/06/16 10:14:54;;;;;;;8.20;3.45;;;;;;;25.39;35.37;102187.19;5220221;28;20047;-70
2022/06/16 10:17:28;;;;;;;5.47;3.05;;;;;;;25.46;36.16;102190.75;5228384;28;20025;-71
2022/06/16 10:20:00;;;;;;;5.97;3.45;;;;;;;25.26;36.02;102188.94;5231591;28;20118;-70
2022/06/16 10:22:35;;;;;;;6.70;3.50;;;;;;;25.48;35.30;102190.53;5221866;28;20049;-70
2022/06/16 10:25:22;;;;;;;7.55;3.40;;;;;;;25.76;35.35;102198.56;5225328;28;20043;-70
2022/06/16 10:28:00;;;;;;;5.47;3.13;;;;;;;25.70;34.83;102210.09;5237593;28;20043;-69
2022/06/16 10:30:34;;;;;;;5.07;3.13;;;;;;;25.75;34.92;102204.94;5237596;28;20095;-69
2022/06/16 10:33:05;;;;;;;6.43;3.10;;;;;;;25.86;34.52;102212.47;5236856;28;20064;-69
2022/06/16 10:35:37;;;;;;;7.93;3.33;;;;;;;26.12;36.25;102210.97;5236680;28;20496;-70
2022/06/16 10:38:10;;;;;;;6.65;2.72;;;;;;;26.12;34.57;102210.97;5237732;28;20064;-71
2022/06/16 10:40:42;;;;;;;5.28;2.20;;;;;;;26.07;34.73;102208.06;5248714;28;20107;-70
2022/06/16 10:43:17;;;;;;;4.13;2.80;;;;;;;26.13;34.31;102209.91;5241347;28;20498;-70
2022/06/16 10:46:08;;;;;;;4.63;2.80;;;;;;;26.50;33.99;102213.19;5230532;28;20032;-70
2022/06/16 10:48:47;;;;;;;4.63;3.10;;;;;;;26.34;33.97;102207.13;5236574;28;20025;-70
2022/06/16 10:51:21;;;;;;;7.20;2.80;;;;;;;26.31;34.68;102212.88;5239465;28;20112;-70
2022/06/16 10:54:21;;;;;;;8.23;3.10;;;;;;;26.57;32.82;102200.59;5233089;28;20369;-71
2022/06/16 10:57:24;;;;;;;9.55;2.50;;;;;;;26.57;33.49;102206.78;5241809;28;20029;-70
2022/06/16 11:00:06;;;;;;;8.07;2.88;;;;;;;26.58;33.46;102202.25;5228922;28;20038;-71
2022/06/16 11:03:00;;;;;;;4.38;2.25;;;;;;;26.72;33.19;102200.41;5238211;28;20090;-71
2022/06/16 11:05:37;;;;;;;5.35;2.22;;;;;;;26.63;33.63;102200.63;5237950;28;20030;-71
2022/06/16 11:08:12;;;;;;;5.03;2.72;;;;;;;26.61;34.46;102194.59;5241786;28;20111;-70
2022/06/16 11:10:53;;;;;;;5.72;2.20;;;;;;;26.75;34.76;102195.47;5227487;28;20387;-72
2022/06/16 11:13:45;;;;;;;8.57;2.60;;;;;;;26.69;34.80;102196.28;5243434;28;20048;-71
2022/06/16 11:16:30;;;;;;;4.35;2.15;;;;;;;26.76;34.42;102194.41;5222936;28;20029;-71
2022/06/16 11:19:08;;;;;;;6.57;2.85;;;;;;;26.48;33.87;102191.91;5241777;28;20037;-71
2022/06/16 11:21:45;;;;;;;7.30;3.00;;;;;;;26.62;35.25;102193.56;5239881;28;20068;-71
2022/06/16 11:24:30;;;;;;;3.83;2.40;;;;;;;27.02;33.88;102199.00;5239831;28;20036;-71
2022/06/16 11:27:11;;;;;;;7.68;2.92;;;;;;;26.79;34.08;102183.25;5241818;28;20028;-71
2022/06/16 11:29:43;;;;;;;5.18;2.50;;;;;;;26.87;33.91;102182.22;5228387;28;20030;-71
2022/06/16 11:32:24;;;;;;;6.07;2.67;;;;;;;26.88;33.82;102187.41;5239511;28;20689;-71
2022/06/16 11:34:55;;;;;;;6.20;2.30;;;;;;;26.81;33.90;102177.66;5234398;28;20042;-71
2022/06/16 11:37:32;;;;;;;5.93;2.50;;;;;;;26.87;33.42;102188.44;5241470;28;20361;-71
2022/06/16 11:40:19;;;;;;;4.78;2.40;;;;;;;26.83;33.46;102184.50;5240755;28;20028;-71
2022/06/16 11:43:08;;;;;;;4.60;2.47;;;;;;;27.22;33.29;102173.97;5237117;28;20034;-71
2022/06/16 11:45:45;;;;;;;4.13;2.40;;;;;;;26.97;32.81;102188.00;5237487;28;20844;-71
2022/06/16 11:48:26;;;;;;;4.53;2.55;;;;;;;27.05;33.67;102184.28;5240527;28;20112;-70
2022/06/16 11:51:12;;;;;;;4.28;2.38;;;;;;;27.06;32.65;102185.97;5235842;28;20071;-72
2022/06/16 11:53:55;;;;;;;4.28;2.22;;;;;;;27.01;33.41;102183.91;5246586;28;20684;-71
2022/06/16 11:56:33;;;;;;;5.70;2.60;;;;;;;27.21;35.34;102178.53;5236652;28;20033;-71
2022/06/16 11:59:22;;;;;;;5.80;2.17;;;;;;;27.20;32.62;102198.41;5240753;28;20079;-72
2022/06/16 12:02:08;;;;;;;7.82;2.50;;;;;;;27.24;33.19;102199.66;5219438;28;20105;-72
2022/06/16 12:04:39;;;;;;;6.72;2.70;;;;;;;27.08;32.64;102210.78;5241653;28;20016;-71
2022/06/16 12:07:56;;;;;;;4.70;2.73;;;;;;;27.62;33.02;102205.19;5236915;28;20641;-71
2022/06/16 12:10:50;;;;;;;4.57;2.10;;;;;;;27.43;33.61;102195.28;5242797;28;20034;-71
2022/06/16 12:13:39;;;;;;;4.53;2.40;;;;;;;27.36;32.34;102191.78;5245785;28;20430;-70
2022/06/16 12:16:16;;;;;;;4.65;2.50;;;;;;;27.27;32.52;102201.91;5239918;28;20468;-71
2022/06/16 12:19:00;;;;;;;4.90;2.15;;;;;;;27.42;33.19;102199.00;5240437;28;20488;-70
2022/06/16 12:21:47;;;;;;;4.75;2.00;;;;;;;27.54;32.13;102199.19;5231503;28;20135;-70
2022/06/16 12:24:29;;;;;;;4.53;2.10;;;;;;;27.28;31.65;102205.44;5239839;28;20781;-71
2022/06/16 12:27:25;;;;;;;4.07;2.08;;;;;;;27.59;33.08;102210.97;5236768;28;20117;-70
2022/06/16 12:30:04;;;;;;;4.90;2.17;;;;;;;27.56;34.50;102214.09;5242792;28;20071;-70
2022/06/16 12:33:03;;;;;;;6.10;2.58;;;;;;;27.59;32.57;102229.84;5244517;28;20029;-70
2022/06/16 12:35:48;;;;;;;6.80;2.75;;;;;;;27.67;33.25;102236.84;5246493;28;20029;-70
2022/06/16 12:38:32;;;;;;;5.70;2.30;;;;;;;27.70;32.47;102241.81;5226429;28;20101;-70
2022/06/16 12:41:11;;;;;;;4.70;2.30;;;;;;;27.56;31.33;102230.25;5241492;28;20025;-70